Time;durP1;ratioP1;P1;durP2;ratioP2;P2;SDS_P1;SDS_P2;PMS_P1;PMS_P2;Temp;Humidity;BMP_temperature;BMP_pressure;BME280_temperature;BME280_humidity;BME280_pressure;Samples;Min_cycle;Max_cycle;Signal;HPM_P1;HPM_P2
2022/10/06 00:01:15;;;;;;;7.82;7.13;;;14.40;99.90;;;;;;5072181;28;20287;-74
2022/10/06 00:03:43;;;;;;;7.90;7.20;;;14.40;99.90;;;;;;5076128;28;20221;-74
2022/10/06 00:06:12;;;;;;;7.75;7.10;;;14.40;99.90;;;;;;5074779;28;20621;-74
2022/10/06 00:08:41;;;;;;;7.90;6.75;;;14.40;99.90;;;;;;5074533;28;20214;-74
2022/10/06 00:11:09;;;;;;;7.28;6.68;;;14.40;99.90;;;;;;5070984;28;20243;-74
2022/10/06 00:13:38;;;;;;;7.80;7.10;;;14.40;99.90;;;;;;5070149;28;20195;-75
2022/10/06 00:16:10;;;;;;;7.43;6.82;;;14.40;99.90;;;;;;5105887;22;20282;-72
2022/10/06 00:18:37;;;;;;;7.65;6.90;;;14.40;99.90;;;;;;5089275;28;20750;-72
2022/10/06 00:21:05;;;;;;;7.70;7.00;;;14.30;99.90;;;;;;5087937;28;20225;-73
2022/10/06 00:23:33;;;;;;;6.70;6.20;;;14.30;99.90;;;;;;5088005;28;20198;-73
2022/10/06 00:26:00;;;;;;;7.70;7.00;;;14.40;99.90;;;;;;5088710;28;20218;-73
2022/10/06 00:28:27;;;;;;;7.78;7.07;;;14.40;99.90;;;;;;5085574;28;20245;-73
2022/10/06 00:30:56;;;;;;;7.25;6.65;;;14.30;99.90;;;;;;5089892;28;20229;-73
2022/10/06 00:33:24;;;;;;;7.38;6.68;;;14.30;99.90;;;;;;5086601;28;20204;-73
2022/10/06 00:35:57;;;;;;;7.30;6.70;;;14.40;99.90;;;;;;5086343;28;20209;-73
2022/10/06 00:38:25;;;;;;;7.10;6.40;;;14.40;99.90;;;;;;5089637;28;20276;-72
2022/10/06 00:40:52;;;;;;;6.65;6.05;;;14.40;99.90;;;;;;5091572;28;20228;-72
2022/10/06 00:43:57;;;;;;;8.48;7.68;;;14.40;99.90;;;;;;5091070;28;20193;-72
2022/10/06 00:46:32;;;;;;;8.25;7.45;;;14.40;99.90;;;;;;5093750;28;20255;-72
2022/10/06 00:49:06;;;;;;;8.02;7.35;;;14.30;99.90;;;;;;5101063;28;20243;-72
2022/10/06 00:51:34;;;;;;;8.05;7.35;;;14.20;99.90;;;;;;5081875;28;20217;-72
2022/10/06 00:54:02;;;;;;;7.82;7.20;;;14.20;99.90;;;;;;5086058;28;20211;-72
2022/10/06 00:56:30;;;;;;;8.23;7.45;;;14.20;99.90;;;;;;5086582;28;20278;-72
2022/10/06 00:58:57;;;;;;;7.25;6.65;;;14.10;99.90;;;;;;5092505;28;20594;-72
2022/10/06 01:01:27;;;;;;;7.95;7.25;;;14.10;99.90;;;;;;5088901;28;20286;-72
2022/10/06 01:03:59;;;;;;;7.53;6.82;;;14.10;99.90;;;;;;5088011;28;20202;-72
2022/10/06 01:06:26;;;;;;;7.32;6.72;;;14.10;99.90;;;;;;5090098;28;20633;-72
2022/10/06 01:08:54;;;;;;;7.25;6.65;;;14.10;99.90;;;;;;5088155;28;20279;-72
2022/10/06 01:11:21;;;;;;;7.13;6.53;;;14.00;99.90;;;;;;5088007;28;20843;-73
2022/10/06 01:13:49;;;;;;;6.80;6.30;;;14.00;99.90;;;;;;5086924;28;20193;-73
2022/10/06 01:16:23;;;;;;;6.50;5.97;;;14.00;99.90;;;;;;5035430;28;1747561;-73
2022/10/06 01:18:55;;;;;;;6.93;6.32;;;14.00;99.90;;;;;;5089310;28;20676;-73
2022/10/06 01:21:27;;;;;;;6.55;6.05;;;14.00;99.90;;;;;;5084553;28;20763;-73
2022/10/06 01:23:57;;;;;;;7.85;6.93;;;14.00;99.90;;;;;;5087805;28;20225;-73
2022/10/06 01:26:25;;;;;;;7.60;6.90;;;14.00;99.90;;;;;;5085496;28;20253;-73
2022/10/06 01:28:53;;;;;;;7.50;6.80;;;14.00;99.90;;;;;;5089734;28;20214;-73
2022/10/06 01:31:20;;;;;;;7.38;6.78;;;14.00;99.90;;;;;;5086036;28;20269;-73
2022/10/06 01:33:51;;;;;;;6.43;5.82;;;14.00;99.90;;;;;;5089473;28;20258;-73
2022/10/06 01:36:19;;;;;;;7.20;6.60;;;14.00;99.90;;;;;;5092624;28;20263;-73
2022/10/06 01:38:46;;;;;;;7.00;6.40;;;14.00;99.90;;;;;;5089541;28;20197;-73
2022/10/06 01:41:15;;;;;;;8.35;7.65;;;13.90;99.90;;;;;;5088059;28;20225;-73
2022/10/06 01:43:42;;;;;;;7.20;6.60;;;13.80;99.90;;;;;;5088710;28;20202;-73
2022/10/06 01:46:10;;;;;;;7.28;6.57;;;13.70;99.90;;;;;;5091328;28;20288;-73
2022/10/06 01:48:37;;;;;;;6.68;6.07;;;13.80;99.90;;;;;;5089964;28;20228;-73
2022/10/06 01:51:04;;;;;;;6.20;5.70;;;13.80;99.90;;;;;;5088134;28;20581;-73
2022/10/06 01:53:32;;;;;;;6.78;6.20;;;13.80;99.90;;;;;;5088257;28;20196;-73
2022/10/06 01:56:03;;;;;;;6.40;5.90;;;13.80;99.90;;;;;;5088431;28;20218;-73
2022/10/06 01:58:32;;;;;;;7.00;6.40;;;13.80;99.90;;;;;;5085126;28;20285;-73
2022/10/06 02:01:04;;;;;;;6.57;5.97;;;13.80;99.90;;;;;;5091616;28;20264;-73
2022/10/06 02:03:33;;;;;;;7.03;6.43;;;13.80;99.90;;;;;;5093910;28;20287;-73
2022/10/06 02:06:00;;;;;;;6.78;6.18;;;13.80;99.90;;;;;;5089719;28;20228;-73
2022/10/06 02:08:28;;;;;;;7.10;6.40;;;13.70;99.90;;;;;;5091388;28;20642;-73
2022/10/06 02:10:55;;;;;;;5.88;5.38;;;13.70;99.90;;;;;;5093278;28;20229;-73
2022/10/06 02:13:25;;;;;;;6.32;5.82;;;13.60;99.90;;;;;;5092458;28;20194;-73
2022/10/06 02:15:57;;;;;;;6.10;5.57;;;13.60;99.90;;;;;;5093110;28;20243;-73
2022/10/06 02:18:24;;;;;;;5.88;5.45;;;13.60;99.90;;;;;;5090352;28;20190;-73
2022/10/06 02:20:52;;;;;;;6.18;5.68;;;13.60;99.90;;;;;;5092959;28;20228;-74
2022/10/06 02:23:19;;;;;;;6.13;5.63;;;13.50;99.90;;;;;;5088781;28;20229;-73
2022/10/06 02:25:46;;;;;;;5.60;5.10;;;13.50;99.90;;;;;;5093483;28;20225;-73
2022/10/06 02:28:15;;;;;;;5.70;5.25;;;13.50;99.90;;;;;;5092188;28;20221;-72
2022/10/06 02:30:42;;;;;;;5.97;5.43;;;13.50;99.90;;;;;;5074646;28;20228;-72
2022/10/06 02:33:11;;;;;;;6.57;5.90;;;13.50;99.90;;;;;;5095127;28;20201;-72
2022/10/06 02:35:41;;;;;;;5.55;5.15;;;13.50;99.90;;;;;;5090511;27;20596;-72
2022/10/06 02:38:08;;;;;;;6.15;5.63;;;13.40;99.90;;;;;;5090444;28;20206;-72
2022/10/06 02:40:36;;;;;;;6.40;5.38;;;13.40;99.90;;;;;;5091663;28;20232;-72
2022/10/06 02:43:03;;;;;;;5.85;5.28;;;13.40;99.90;;;;;;5073996;28;20225;-72
2022/10/06 02:45:31;;;;;;;5.90;5.50;;;13.30;99.90;;;;;;5091425;28;20213;-72
2022/10/06 02:47:58;;;;;;;6.47;5.97;;;13.30;99.90;;;;;;5092193;28;20205;-73
2022/10/06 02:50:26;;;;;;;6.22;5.72;;;13.30;99.90;;;;;;5092937;28;20250;-73
2022/10/06 02:52:54;;;;;;;5.78;5.28;;;13.20;99.90;;;;;;5093314;28;20197;-73
2022/10/06 02:55:21;;;;;;;6.18;5.68;;;13.20;99.90;;;;;;5088377;28;20229;-73
2022/10/06 02:57:48;;;;;;;6.50;5.57;;;13.10;99.90;;;;;;5089697;28;20681;-73
2022/10/06 03:00:16;;;;;;;5.43;4.93;;;13.10;99.90;;;;;;5091594;28;20767;-73
2022/10/06 03:02:43;;;;;;;5.60;5.10;;;13.10;99.90;;;;;;5092986;28;20210;-73
2022/10/06 03:05:10;;;;;;;5.30;4.90;;;13.10;99.90;;;;;;5089822;28;20267;-74
2022/10/06 03:07:39;;;;;;;5.40;5.00;;;13.10;99.90;;;;;;5092962;28;20205;-74
2022/10/06 03:10:08;;;;;;;4.82;4.43;;;13.10;99.90;;;;;;5086038;28;20213;-74
2022/10/06 03:12:35;;;;;;;5.47;5.00;;;13.00;99.90;;;;;;5091274;28;20195;-73
2022/10/06 03:15:03;;;;;;;5.45;5.05;;;13.00;99.90;;;;;;5093611;28;20222;-73
2022/10/06 03:17:30;;;;;;;5.25;4.85;;;13.10;99.90;;;;;;5090336;28;20197;-73
2022/10/06 03:19:57;;;;;;;4.90;4.50;;;13.00;99.90;;;;;;5087321;28;20248;-73
2022/10/06 03:22:25;;;;;;;5.00;4.60;;;13.10;99.90;;;;;;5089936;28;20202;-73
2022/10/06 03:24:54;;;;;;;5.10;4.65;;;13.10;99.90;;;;;;5093029;28;20220;-73
2022/10/06 03:27:21;;;;;;;4.95;4.55;;;13.10;99.90;;;;;;5088738;28;20190;-73
2022/10/06 03:29:48;;;;;;;5.10;4.70;;;13.10;99.90;;;;;;5090468;28;20233;-73
2022/10/06 03:32:15;;;;;;;4.90;4.50;;;13.10;99.90;;;;;;5089190;28;20200;-73
2022/10/06 03:34:45;;;;;;;4.43;4.13;;;13.10;99.90;;;;;;5087834;28;20221;-73
2022/10/06 03:37:13;;;;;;;5.15;4.72;;;13.00;99.90;;;;;;5092202;28;20919;-73
2022/10/06 03:39:40;;;;;;;5.47;5.07;;;13.00;99.90;;;;;;5095734;28;20305;-73
2022/10/06 03:42:09;;;;;;;4.78;4.38;;;13.00;99.90;;;;;;5089264;28;20685;-73
2022/10/06 03:44:36;;;;;;;5.05;4.65;;;12.90;99.90;;;;;;5090951;28;20286;-74
2022/10/06 03:47:04;;;;;;;5.53;5.10;;;12.90;99.90;;;;;;5091882;28;20654;-73
2022/10/06 03:49:32;;;;;;;4.47;4.18;;;12.90;99.90;;;;;;5089038;28;20218;-73
2022/10/06 03:52:00;;;;;;;5.00;4.60;;;12.80;99.90;;;;;;5084883;28;20229;-73
2022/10/06 03:54:27;;;;;;;4.80;4.50;;;12.80;99.90;;;;;;5092281;28;20406;-73
2022/10/06 03:56:54;;;;;;;5.10;4.70;;;12.80;99.90;;;;;;5089524;28;20253;-73
2022/10/06 03:59:23;;;;;;;4.82;4.43;;;12.80;99.90;;;;;;5090091;28;20213;-74
2022/10/06 04:01:51;;;;;;;5.22;4.82;;;12.70;99.90;;;;;;5089969;28;20206;-73
2022/10/06 04:04:18;;;;;;;4.90;4.60;;;12.70;99.90;;;;;;5089602;28;20217;-73
2022/10/06 04:06:45;;;;;;;4.68;4.28;;;12.70;99.90;;;;;;5090839;28;20201;-73
2022/10/06 04:09:14;;;;;;;5.07;4.57;;;12.70;99.90;;;;;;5089745;28;20257;-73
2022/10/06 04:11:42;;;;;;;4.70;4.30;;;12.70;99.90;;;;;;5087859;28;20717;-73
2022/10/06 04:14:14;;;;;;;5.80;5.20;;;12.70;99.90;;;;;;5091975;28;20225;-73
2022/10/06 04:16:44;;;;;;;5.32;4.85;;;12.70;99.90;;;;;;5088569;28;20293;-73
2022/10/06 04:19:13;;;;;;;4.50;4.20;;;12.70;99.90;;;;;;5089292;28;20698;-73
2022/10/06 04:21:42;;;;;;;4.63;4.30;;;12.70;99.90;;;;;;5087474;28;20224;-73
2022/10/06 04:24:10;;;;;;;4.50;4.15;;;12.70;99.90;;;;;;5089737;28;20217;-73
2022/10/06 04:26:39;;;;;;;4.75;4.43;;;12.70;99.90;;;;;;5092124;28;20735;-73
2022/10/06 04:29:08;;;;;;;4.13;3.83;;;12.70;99.90;;;;;;5089656;28;20889;-73
2022/10/06 04:31:37;;;;;;;4.53;4.22;;;12.60;99.90;;;;;;5087516;28;20228;-73
2022/10/06 04:34:07;;;;;;;4.30;3.90;;;12.60;99.90;;;;;;5089021;28;20193;-73
2022/10/06 04:36:37;;;;;;;4.63;4.22;;;12.60;99.90;;;;;;5090713;27;20593;-73
2022/10/06 04:39:06;;;;;;;4.00;3.70;;;12.60;99.90;;;;;;5087293;28;20584;-73
2022/10/06 04:41:36;;;;;;;4.15;3.85;;;12.60;99.90;;;;;;5086886;28;20278;-73
2022/10/06 04:44:05;;;;;;;4.30;4.00;;;12.60;99.90;;;;;;5088497;28;20225;-73
2022/10/06 04:46:33;;;;;;;4.30;3.92;;;12.60;99.90;;;;;;5089283;28;20739;-73
2022/10/06 04:49:00;;;;;;;4.13;3.83;;;12.50;99.90;;;;;;5089622;28;20291;-73
2022/10/06 04:51:29;;;;;;;5.47;4.07;;;12.50;99.90;;;;;;5072138;28;20317;-73
2022/10/06 04:53:57;;;;;;;4.30;3.92;;;12.40;99.90;;;;;;5091389;28;20204;-73
2022/10/06 04:56:25;;;;;;;4.80;3.97;;;12.40;99.90;;;;;;5088960;28;20213;-73
2022/10/06 04:58:54;;;;;;;4.07;3.78;;;12.40;99.90;;;;;;5090544;28;20201;-73
2022/10/06 05:01:24;;;;;;;3.42;3.22;;;12.40;99.90;;;;;;5090554;28;20214;-73
2022/10/06 05:03:52;;;;;;;4.18;3.88;;;12.40;99.90;;;;;;5086846;28;20198;-73
2022/10/06 05:06:22;;;;;;;4.15;3.85;;;12.40;99.90;;;;;;5085567;28;20705;-74
2022/10/06 05:08:52;;;;;;;3.85;3.60;;;12.40;99.90;;;;;;5090354;28;20213;-74
2022/10/06 05:11:20;;;;;;;4.07;3.78;;;12.40;99.90;;;;;;5086968;28;20214;-74
2022/10/06 05:13:49;;;;;;;3.70;3.50;;;12.40;99.90;;;;;;5090060;28;20193;-74
2022/10/06 05:16:16;;;;;;;3.80;3.42;;;12.40;99.90;;;;;;5102043;28;20262;-74
2022/10/06 05:18:44;;;;;;;3.80;3.50;;;12.40;99.90;;;;;;5100941;28;20194;-73
2022/10/06 05:21:13;;;;;;;3.72;3.50;;;12.40;99.90;;;;;;5089854;28;20558;-74
2022/10/06 05:23:42;;;;;;;3.97;3.67;;;12.40;99.90;;;;;;5088352;28;20265;-73
2022/10/06 05:26:12;;;;;;;3.80;3.60;;;12.40;99.90;;;;;;5092332;28;20256;-73
2022/10/06 05:28:40;;;;;;;3.72;3.42;;;12.40;99.90;;;;;;5091061;28;20193;-73
2022/10/06 05:31:10;;;;;;;4.13;3.78;;;12.40;99.90;;;;;;5083627;28;20225;-74
2022/10/06 05:33:38;;;;;;;3.97;3.58;;;12.40;99.90;;;;;;5083033;28;20194;-74
2022/10/06 05:36:07;;;;;;;3.40;3.10;;;12.40;99.90;;;;;;5089780;28;20220;-74
2022/10/06 05:38:34;;;;;;;4.50;3.75;;;12.40;99.90;;;;;;5089206;28;20197;-74
2022/10/06 05:41:03;;;;;;;3.97;3.67;;;12.40;99.90;;;;;;5084685;28;20266;-74
2022/10/06 05:43:32;;;;;;;3.70;3.30;;;12.40;99.90;;;;;;5088465;28;20658;-74
2022/10/06 05:46:01;;;;;;;3.83;3.53;;;12.50;99.90;;;;;;5093262;28;20228;-73
2022/10/06 05:48:29;;;;;;;4.05;3.38;;;12.50;99.90;;;;;;5086741;28;20197;-72
2022/10/06 05:51:00;;;;;;;3.25;3.05;;;12.40;99.90;;;;;;5086358;28;20220;-73
2022/10/06 05:53:28;;;;;;;3.75;3.45;;;12.40;99.90;;;;;;5089702;28;20771;-73
2022/10/06 05:56:05;;;;;;;4.07;3.78;;;12.40;99.90;;;;;;5089610;28;20267;-73
2022/10/06 05:58:34;;;;;;;3.85;3.55;;;12.40;99.90;;;;;;5089763;28;20224;-72
2022/10/06 06:01:09;;;;;;;4.18;3.88;;;12.40;99.90;;;;;;5087613;28;20729;-72
2022/10/06 06:03:37;;;;;;;4.35;3.95;;;12.30;99.90;;;;;;5084043;28;20662;-72
2022/10/06 06:06:05;;;;;;;4.28;3.97;;;12.30;99.90;;;;;;5089484;28;20221;-72
2022/10/06 06:08:32;;;;;;;3.90;3.63;;;12.40;99.90;;;;;;5085487;28;20338;-72
2022/10/06 06:11:07;;;;;;;3.67;3.42;;;12.40;99.90;;;;;;5086430;28;20232;-72
2022/10/06 06:13:36;;;;;;;4.15;3.85;;;12.40;99.90;;;;;;5086039;28;20193;-72
2022/10/06 06:16:04;;;;;;;4.45;4.10;;;12.40;99.90;;;;;;5082936;28;20217;-72
2022/10/06 06:18:34;;;;;;;4.28;3.97;;;12.40;99.90;;;;;;5086443;28;20196;-72
2022/10/06 06:21:02;;;;;;;3.83;3.53;;;12.40;99.90;;;;;;5090368;28;20213;-72
2022/10/06 06:23:35;;;;;;;4.10;3.80;;;12.40;99.90;;;;;;5090086;28;20211;-72
2022/10/06 06:26:05;;;;;;;3.80;3.50;;;12.40;99.90;;;;;;5088123;28;20217;-71
2022/10/06 06:28:36;;;;;;;3.75;3.55;;;12.40;99.90;;;;;;5088214;28;20296;-71
2022/10/06 06:31:05;;;;;;;3.70;3.45;;;12.60;99.90;;;;;;5088724;28;20669;-72
2022/10/06 06:33:34;;;;;;;3.92;3.63;;;13.20;99.90;;;;;;5086358;28;20206;-73
2022/10/06 06:36:02;;;;;;;4.35;4.05;;;14.00;99.90;;;;;;5085415;28;20220;-72
2022/10/06 06:38:30;;;;;;;5.22;3.63;;;14.80;99.90;;;;;;5082275;28;20275;-72
2022/10/06 06:40:58;;;;;;;4.13;3.72;;;15.50;99.90;;;;;;5085367;28;20300;-72
2022/10/06 06:43:25;;;;;;;3.67;3.47;;;16.20;99.90;;;;;;5083177;28;20205;-72
2022/10/06 06:45:54;;;;;;;4.47;4.07;;;16.70;99.90;;;;;;5089853;28;20229;-72
2022/10/06 06:48:21;;;;;;;3.75;3.45;;;17.10;99.90;;;;;;5087681;28;20189;-72
2022/10/06 06:50:57;;;;;;;4.63;4.28;;;17.50;99.90;;;;;;5088514;28;20652;-72
2022/10/06 06:53:25;;;;;;;4.20;3.80;;;17.80;99.90;;;;;;5070247;28;20276;-72
2022/10/06 06:55:52;;;;;;;4.18;3.88;;;18.10;99.90;;;;;;5087328;28;20274;-72
2022/10/06 06:58:20;;;;;;;4.20;3.85;;;18.30;99.90;;;;;;5086805;28;20201;-72
2022/10/06 07:00:49;;;;;;;4.45;4.07;;;18.40;99.90;;;;;;5084749;28;20221;-72
2022/10/06 07:03:20;;;;;;;5.25;4.15;;;18.60;99.90;;;;;;5087237;28;20189;-72
2022/10/06 07:05:48;;;;;;;6.40;4.28;;;18.60;99.90;;;;;;5088776;28;20795;-72
2022/10/06 07:08:18;;;;;;;4.65;4.30;;;18.40;99.90;;;;;;5089156;28;20193;-72
2022/10/06 07:10:47;;;;;;;4.47;4.07;;;18.30;99.90;;;;;;5090357;28;20225;-72
2022/10/06 07:13:17;;;;;;;4.35;4.05;;;18.40;99.90;;;;;;5088813;28;20285;-72
2022/10/06 07:26:58;;;;;;;4.20;3.90;;;19.20;99.90;;;;;;5089433;28;20252;-72
2022/10/06 07:29:26;;;;;;;3.75;3.45;;;19.40;99.90;;;;;;5089387;28;20225;-74
2022/10/06 07:31:54;;;;;;;4.05;3.53;;;19.60;99.90;;;;;;5092370;28;20201;-73
2022/10/06 07:34:23;;;;;;;4.70;3.83;;;19.80;99.90;;;;;;5086788;28;20194;-74
2022/10/06 07:36:52;;;;;;;4.03;3.72;;;19.70;99.90;;;;;;5086968;28;20251;-73
2022/10/06 07:39:20;;;;;;;3.80;3.50;;;19.80;99.90;;;;;;5082685;28;20772;-73
2022/10/06 07:41:47;;;;;;;4.30;4.00;;;19.90;99.90;;;;;;5088662;28;20504;-73
2022/10/06 07:44:14;;;;;;;4.28;3.88;;;19.90;99.90;;;;;;5086817;28;20193;-73
2022/10/06 07:46:42;;;;;;;3.70;3.40;;;20.10;99.90;;;;;;5086877;28;20209;-73
2022/10/06 07:49:10;;;;;;;4.22;3.22;;;20.30;99.90;;;;;;5089965;28;20218;-73
2022/10/06 07:51:41;;;;;;;4.07;3.67;;;20.50;99.90;;;;;;5093972;28;20219;-73
2022/10/06 07:54:09;;;;;;;3.72;3.42;;;20.80;99.90;;;;;;5089149;28;20197;-73
2022/10/06 07:56:36;;;;;;;4.00;3.70;;;21.10;99.90;;;;;;5086464;28;20286;-73
2022/10/06 07:59:03;;;;;;;3.50;3.30;;;21.40;99.90;;;;;;5089486;28;20210;-73
2022/10/06 08:01:31;;;;;;;4.82;3.50;;;21.50;99.90;;;;;;5088734;28;20273;-73
2022/10/06 08:03:58;;;;;;;4.07;3.78;;;21.30;99.90;;;;;;5088563;28;20193;-73
2022/10/06 08:06:25;;;;;;;3.95;3.55;;;21.50;99.90;;;;;;5087836;28;20213;-73
2022/10/06 08:08:55;;;;;;;3.83;3.40;;;21.60;99.90;;;;;;5086897;28;20262;-73
2022/10/06 08:11:22;;;;;;;3.88;3.58;;;21.80;99.90;;;;;;5086295;28;20209;-72
2022/10/06 08:13:50;;;;;;;3.97;3.67;;;21.90;99.90;;;;;;5084687;28;20288;-73
2022/10/06 08:16:19;;;;;;;3.83;3.53;;;21.90;99.90;;;;;;5086520;28;20217;-73
2022/10/06 08:18:52;;;;;;;3.85;3.55;;;21.90;99.90;;;;;;5086076;28;20205;-72
2022/10/06 08:21:21;;;;;;;3.00;2.80;;;22.00;99.90;;;;;;5082952;28;20274;-72
2022/10/06 08:23:50;;;;;;;4.15;3.78;;;22.10;99.90;;;;;;5086048;28;20667;-72
2022/10/06 08:26:20;;;;;;;3.80;3.50;;;22.00;99.90;;;;;;5087763;28;20233;-72
2022/10/06 08:28:49;;;;;;;3.70;3.40;;;21.80;99.90;;;;;;5087552;28;20208;-73
2022/10/06 08:31:19;;;;;;;4.53;3.30;;;21.80;99.90;;;;;;5088042;28;20750;-74
2022/10/06 08:33:48;;;;;;;3.53;3.22;;;22.00;99.90;;;;;;5088359;28;20207;-74
2022/10/06 08:36:18;;;;;;;3.60;3.30;;;22.10;99.90;;;;;;5086566;28;20210;-74
2022/10/06 08:38:49;;;;;;;3.80;3.47;;;22.20;99.90;;;;;;5082051;28;20198;-74
2022/10/06 08:41:25;;;;;;;4.00;3.45;;;22.40;99.90;;;;;;5086281;28;20217;-73
2022/10/06 08:43:59;;;;;;;6.82;4.28;;;22.60;99.90;;;;;;5080810;28;20204;-73
2022/10/06 08:46:32;;;;;;;3.30;3.00;;;22.60;99.90;;;;;;5077404;28;20244;-73
2022/10/06 08:49:01;;;;;;;3.60;3.30;;;22.70;99.90;;;;;;5082915;28;20213;-73
2022/10/06 08:51:49;;;;;;;3.33;3.10;;;22.60;99.90;;;;;;5080513;28;20238;-74
2022/10/06 08:54:28;;;;;;;3.50;3.20;;;22.50;99.90;;;;;;5083562;28;20270;-74
2022/10/06 08:57:05;;;;;;;3.50;3.20;;;22.50;99.90;;;;;;5084383;28;20232;-74
2022/10/06 08:59:34;;;;;;;3.90;3.05;;;22.70;99.90;;;;;;5086721;28;20213;-74
2022/10/06 09:02:06;;;;;;;3.40;3.10;;;23.10;99.90;;;;;;5085420;28;20281;-74
2022/10/06 09:04:34;;;;;;;5.60;3.13;;;23.30;99.90;;;;;;5088232;28;20242;-76
2022/10/06 09:07:04;;;;;;;4.10;3.80;;;23.10;99.90;;;;;;5085240;28;20228;-75
2022/10/06 09:09:46;;;;;;;3.28;3.00;;;23.00;99.90;;;;;;5083880;28;20217;-74
2022/10/06 09:12:26;;;;;;;3.38;3.08;;;23.10;99.90;;;;;;5084802;28;20206;-74
2022/10/06 09:14:56;;;;;;;5.93;3.40;;;23.10;99.90;;;;;;5085331;28;20245;-74
2022/10/06 09:17:31;;;;;;;3.40;3.10;;;23.10;99.90;;;;;;5083030;28;20261;-74
2022/10/06 09:20:02;;;;;;;4.60;3.35;;;23.10;99.90;;;;;;5075078;28;20225;-74
2022/10/06 09:22:32;;;;;;;3.50;3.20;;;23.20;99.90;;;;;;5080090;28;20248;-74
2022/10/06 09:25:11;;;;;;;3.40;3.08;;;23.10;99.90;;;;;;5081725;28;20217;-76
2022/10/06 09:27:43;;;;;;;3.33;3.03;;;23.10;99.90;;;;;;5085186;28;20242;-75
2022/10/06 09:30:13;;;;;;;3.72;3.20;;;23.10;99.90;;;;;;5080908;28;20248;-75
2022/10/06 09:32:46;;;;;;;3.60;3.30;;;23.10;99.90;;;;;;5083174;28;20206;-75
2022/10/06 09:35:19;;;;;;;4.50;3.22;;;23.30;99.90;;;;;;5088291;28;20300;-74
2022/10/06 09:37:55;;;;;;;5.60;3.65;;;23.30;99.90;;;;;;5081222;28;20201;-74
2022/10/06 09:40:36;;;;;;;4.97;3.72;;;23.30;99.90;;;;;;5089608;28;20281;-74
2022/10/06 09:43:19;;;;;;;3.63;3.20;;;23.20;99.90;;;;;;5089284;28;20237;-74
2022/10/06 09:45:46;;;;;;;3.78;3.47;;;22.80;99.90;;;;;;5085332;28;20218;-74
2022/10/06 09:48:22;;;;;;;4.35;3.03;;;22.60;99.90;;;;;;5079038;28;20197;-73
2022/10/06 09:51:11;;;;;;;4.18;3.45;;;22.80;99.90;;;;;;5083934;28;20233;-73
2022/10/06 09:53:39;;;;;;;3.08;2.88;;;23.30;99.90;;;;;;5086392;28;20598;-74
2022/10/06 09:56:14;;;;;;;3.38;3.08;;;23.30;99.90;;;;;;5083041;28;20866;-74
2022/10/06 09:58:55;;;;;;;3.50;3.20;;;23.30;99.90;;;;;;5085081;28;20197;-73
2022/10/06 10:01:25;;;;;;;4.15;3.40;;;23.30;99.90;;;;;;5081516;28;20594;-75
2022/10/06 10:03:56;;;;;;;3.78;3.47;;;23.50;99.90;;;;;;5082065;28;20284;-71
2022/10/06 10:06:26;;;;;;;3.58;3.33;;;23.50;99.90;;;;;;5085604;28;20225;-72
2022/10/06 10:09:14;;;;;;;3.38;3.08;;;23.40;99.90;;;;;;5085943;28;20735;-71
2022/10/06 10:14:26;;;;;;;4.00;3.17;;;23.20;99.90;;;;;;5082441;28;20196;-72
2022/10/06 10:16:53;;;;;;;3.60;3.30;;;22.90;99.90;;;;;;5081493;28;20529;-72
2022/10/06 10:19:24;;;;;;;4.75;3.10;;;22.90;99.90;;;;;;5086978;28;20232;-72
2022/10/06 10:21:55;;;;;;;3.42;3.13;;;23.20;99.90;;;;;;5087563;28;20194;-71
2022/10/06 10:24:40;;;;;;;4.18;3.10;;;23.30;99.90;;;;;;5084956;28;20197;-72
2022/10/06 10:27:15;;;;;;;3.75;3.30;;;23.30;99.90;;;;;;5087855;28;20218;-71
2022/10/06 10:30:00;;;;;;;3.80;3.40;;;22.70;99.90;;;;;;5089870;28;20229;-72
2022/10/06 10:32:45;;;;;;;4.43;3.30;;;22.40;99.90;;;;;;5079176;28;20210;-72
2022/10/06 10:35:22;;;;;;;3.05;2.85;;;22.30;99.90;;;;;;5087175;28;20279;-72
2022/10/06 10:37:58;;;;;;;3.00;2.70;;;22.40;99.90;;;;;;5086841;28;20201;-71
2022/10/06 10:40:36;;;;;;;4.35;3.30;;;22.50;99.90;;;;;;5085017;28;20263;-72
2022/10/06 10:43:21;;;;;;;3.22;2.97;;;22.50;99.90;;;;;;5084889;28;20201;-72
2022/10/06 10:45:55;;;;;;;3.00;2.80;;;22.40;99.90;;;;;;5082527;28;20218;-72
2022/10/06 10:48:30;;;;;;;3.55;2.75;;;22.50;99.90;;;;;;5083206;28;20235;-71
2022/10/06 10:51:05;;;;;;;3.72;3.40;;;22.70;99.90;;;;;;5084452;28;20307;-72
2022/10/06 10:53:40;;;;;;;2.90;2.70;;;23.00;99.90;;;;;;5086957;28;20591;-71
2022/10/06 10:56:11;;;;;;;3.28;2.88;;;23.10;99.90;;;;;;5086791;28;20227;-72
2022/10/06 10:58:41;;;;;;;3.40;3.10;;;23.30;99.90;;;;;;5087100;28;20201;-72
2022/10/06 11:01:20;;;;;;;3.17;2.90;;;23.20;99.90;;;;;;5089713;28;20310;-72
2022/10/06 11:03:55;;;;;;;4.03;3.47;;;23.30;99.90;;;;;;5089569;28;20612;-71
2022/10/06 11:06:44;;;;;;;3.90;3.60;;;23.20;99.90;;;;;;5086395;28;20636;-71
2022/10/06 11:09:15;;;;;;;3.22;2.90;;;22.90;99.90;;;;;;5088627;28;20298;-71
2022/10/06 11:11:57;;;;;;;3.65;3.35;;;22.90;99.90;;;;;;5084609;28;20228;-71
2022/10/06 11:14:40;;;;;;;3.35;3.03;;;22.80;99.90;;;;;;5086833;28;20206;-72
2022/10/06 11:17:19;;;;;;;2.95;2.75;;;23.00;99.90;;;;;;5085487;28;20233;-71
2022/10/06 11:19:55;;;;;;;3.72;3.17;;;23.60;99.90;;;;;;5085474;28;20309;-72
2022/10/06 11:22:32;;;;;;;3.40;3.20;;;23.70;99.90;;;;;;5085002;28;20193;-71
2022/10/06 11:25:12;;;;;;;3.33;3.08;;;23.60;99.90;;;;;;5086379;28;20239;-71
2022/10/06 11:27:48;;;;;;;3.10;2.90;;;23.50;99.90;;;;;;5083692;28;20205;-71
2022/10/06 11:30:19;;;;;;;4.05;3.70;;;23.40;99.90;;;;;;5083919;28;20303;-71
2022/10/06 11:33:00;;;;;;;3.15;2.95;;;22.90;99.90;;;;;;5088673;28;20212;-70
2022/10/06 11:35:34;;;;;;;3.65;3.35;;;22.90;99.90;;;;;;5084396;28;20221;-71
2022/10/06 11:38:07;;;;;;;3.55;3.25;;;22.60;99.90;;;;;;5085596;28;20225;-71
2022/10/06 11:40:48;;;;;;;5.00;4.25;;;22.70;99.90;;;;;;5081888;28;20221;-72
2022/10/06 11:43:27;;;;;;;3.70;3.42;;;22.70;99.90;;;;;;5083815;28;20194;-72
2022/10/06 11:46:01;;;;;;;3.10;2.90;;;22.70;99.90;;;;;;5087017;28;20217;-71
2022/10/06 11:48:31;;;;;;;4.22;3.83;;;22.90;99.90;;;;;;5083739;28;20198;-71
2022/10/06 11:51:29;;;;;;;4.00;3.67;;;23.10;99.90;;;;;;5081943;28;20225;-71
2022/10/06 11:53:57;;;;;;;5.03;3.78;;;23.10;99.90;;;;;;5083217;28;20230;-71
2022/10/06 11:56:45;;;;;;;3.83;3.50;;;23.20;99.90;;;;;;5081280;28;20702;-71
2022/10/06 11:59:27;;;;;;;3.65;3.45;;;23.30;99.90;;;;;;5085303;28;20308;-71
2022/10/06 12:01:59;;;;;;;4.25;3.85;;;23.30;99.90;;;;;;5083510;28;20313;-72
2022/10/06 12:04:28;;;;;;;4.47;4.18;;;23.20;99.90;;;;;;5082164;28;20200;-72
2022/10/06 12:07:01;;;;;;;3.85;3.55;;;23.10;99.90;;;;;;5085378;28;20205;-72
2022/10/06 12:09:46;;;;;;;4.47;4.15;;;23.20;99.90;;;;;;5068229;28;20218;-72
2022/10/06 12:12:52;;;;;;;6.00;4.15;;;23.40;99.90;;;;;;5083010;28;20216;-71
2022/10/06 12:15:43;;;;;;;4.70;4.30;;;23.30;99.90;;;;;;5086034;28;20213;-71
2022/10/06 12:18:50;;;;;;;3.75;3.45;;;23.30;99.90;;;;;;5084867;28;20200;-71
2022/10/06 12:21:33;;;;;;;4.50;4.10;;;23.60;99.90;;;;;;5073630;28;20210;-72
2022/10/06 12:24:06;;;;;;;5.05;3.88;;;24.10;99.90;;;;;;5088128;28;20194;-71
2022/10/06 12:26:49;;;;;;;4.07;3.78;;;24.10;99.90;;;;;;5086870;28;20217;-72
2022/10/06 12:29:29;;;;;;;4.03;3.72;;;24.10;99.90;;;;;;5087293;28;20216;-72
2022/10/06 12:32:07;;;;;;;4.35;4.05;;;24.10;99.90;;;;;;5088596;28;20233;-71
2022/10/06 12:34:56;;;;;;;4.90;3.92;;;24.00;99.90;;;;;;5085595;28;20220;-72
2022/10/06 12:37:46;;;;;;;4.15;3.85;;;23.80;99.90;;;;;;5085745;28;20225;-71
2022/10/06 12:40:43;;;;;;;3.80;3.50;;;23.70;99.90;;;;;;5084444;28;20236;-72
2022/10/06 12:43:45;;;;;;;3.90;3.60;;;23.80;99.90;;;;;;5086070;28;20190;-72
2022/10/06 12:46:34;;;;;;;3.97;3.67;;;24.20;99.90;;;;;;5082048;28;20993;-72
2022/10/06 12:49:30;;;;;;;4.47;4.07;;;24.40;99.90;;;;;;5079487;28;20248;-72
2022/10/06 12:52:06;;;;;;;4.65;3.65;;;24.30;99.90;;;;;;5087420;28;20221;-72
2022/10/06 12:54:39;;;;;;;4.55;4.20;;;24.30;99.90;;;;;;5081111;28;20190;-72
2022/10/06 12:57:18;;;;;;;3.70;3.40;;;24.40;99.90;;;;;;5078704;28;20198;-72
2022/10/06 12:59:47;;;;;;;3.60;3.30;;;24.50;99.90;;;;;;5083492;28;20231;-72
2022/10/06 13:02:19;;;;;;;5.78;4.10;;;24.50;99.90;;;;;;5082358;28;20194;-72
2022/10/06 13:04:51;;;;;;;4.43;3.35;;;24.20;99.90;;;;;;5085337;28;20228;-72
2022/10/06 13:07:21;;;;;;;3.97;3.58;;;24.00;99.90;;;;;;5080905;28;20194;-72
2022/10/06 13:09:52;;;;;;;3.55;3.20;;;24.00;99.90;;;;;;5080071;28;20816;-77
2022/10/06 13:12:27;;;;;;;3.72;3.17;;;24.10;99.90;;;;;;5087371;28;20690;-76
2022/10/06 13:15:15;;;;;;;3.38;3.08;;;24.30;99.90;;;;;;5078010;28;20332;-77
2022/10/06 13:17:44;;;;;;;2.70;2.50;;;24.50;99.90;;;;;;5081539;28;20229;-77
2022/10/06 13:20:24;;;;;;;2.80;2.60;;;24.80;99.90;;;;;;5079541;28;20668;-76
2022/10/06 13:23:00;;;;;;;3.53;3.28;;;24.90;99.90;;;;;;5083305;28;20193;-77
2022/10/06 13:25:35;;;;;;;3.50;3.20;;;24.70;99.90;;;;;;5083991;28;20209;-76